createdAt,value
2023-03-26T00:01:33.717Z,49.96
2023-03-26T00:06:33.717Z,49.49
2023-03-26T00:11:33.708Z,49.07
2023-03-26T00:16:33.719Z,49.04
2023-03-26T00:21:33.709Z,48.75
2023-03-26T00:26:33.722Z,48.74
2023-03-26T00:31:33.723Z,48.96
2023-03-26T00:36:33.713Z,49.39
2023-03-26T00:41:33.724Z,49.36
2023-03-26T00:46:33.715Z,48.95
2023-03-26T00:51:33.726Z,48.76
2023-03-26T00:56:33.727Z,48.57
2023-03-26T01:01:33.729Z,48.3
2023-03-26T01:06:33.752Z,48
2023-03-26T01:11:33.719Z,48.3
2023-03-26T01:16:33.735Z,48.44
2023-03-26T01:21:33.722Z,48.43
2023-03-26T01:26:33.733Z,47.93
2023-03-26T01:31:33.734Z,48.07
2023-03-26T01:36:33.784Z,47.96
2023-03-26T01:41:33.736Z,48.05
2023-03-26T01:46:33.727Z,48.03
2023-03-26T01:51:33.739Z,47.95
2023-03-26T01:56:33.728Z,48.03
2023-03-26T02:01:33.741Z,47.92
2023-03-26T02:06:33.740Z,48.16
2023-03-26T02:11:33.732Z,48.15
2023-03-26T02:16:33.743Z,48.26
2023-03-26T02:21:33.733Z,48.28
2023-03-26T02:26:33.744Z,48.21
2023-03-26T02:31:33.745Z,48.26
2023-03-26T02:36:33.746Z,48.36
2023-03-26T02:41:33.747Z,48.12
2023-03-26T02:46:33.738Z,48.06
2023-03-26T02:51:33.749Z,47.95
2023-03-26T02:56:33.740Z,48.02
2023-03-26T03:01:33.752Z,47.99
2023-03-26T03:06:33.753Z,48.12
2023-03-26T03:11:33.743Z,48.23
2023-03-26T03:16:43.013Z,48.22
2023-03-26T03:21:33.745Z,48.3
2023-03-26T03:26:33.756Z,48.28
2023-03-26T03:31:33.756Z,48.2
2023-03-26T03:36:33.758Z,48.13
2023-03-26T03:41:33.758Z,48.27
2023-03-26T03:46:33.749Z,48.5
2023-03-26T03:51:33.760Z,48.31
2023-03-26T03:56:33.751Z,48.1
2023-03-26T04:01:33.826Z,47.94
2023-03-26T04:06:33.763Z,47.92
2023-03-26T04:11:33.765Z,47.81
2023-03-26T04:16:33.765Z,47.7
2023-03-26T04:21:33.765Z,47.71
2023-03-26T04:26:33.766Z,47.57
2023-03-26T04:31:33.757Z,47.3
2023-03-26T04:36:33.769Z,46.95
2023-03-26T04:41:33.769Z,47
2023-03-26T04:46:33.760Z,47.09
2023-03-26T04:51:33.770Z,47.63
2023-03-26T04:56:33.761Z,47.32
2023-03-26T05:01:33.773Z,46.86
2023-03-26T05:06:33.773Z,46.95
2023-03-26T05:11:33.775Z,46.56
2023-03-26T05:16:33.775Z,46.66
2023-03-26T05:21:33.766Z,46.63
2023-03-26T05:26:33.777Z,46.93
2023-03-26T05:31:33.766Z,46.92
2023-03-26T05:36:33.779Z,47.16
2023-03-26T05:41:33.779Z,47.46
2023-03-26T05:46:33.769Z,47.74
2023-03-26T05:51:33.781Z,47.7
2023-03-26T05:56:33.772Z,47.39
2023-03-26T06:01:33.783Z,46.97
2023-03-26T06:06:33.784Z,47.14
2023-03-26T06:11:33.785Z,46.33
2023-03-26T06:16:33.808Z,46.03
2023-03-26T06:21:33.777Z,45.7
2023-03-26T06:26:33.854Z,45.61
2023-03-26T06:31:33.778Z,45.95
2023-03-26T06:36:33.789Z,45.98
2023-03-26T06:41:33.790Z,45.88
2023-03-26T06:46:33.815Z,45.79
2023-03-26T06:51:33.792Z,45.76
2023-03-26T06:56:33.783Z,45.74
2023-03-26T07:01:33.795Z,45.62
2023-03-26T07:06:33.785Z,45.95
2023-03-26T07:11:33.797Z,46.31
2023-03-26T07:16:33.798Z,46.52
2023-03-26T07:21:33.788Z,47.07
2023-03-26T07:26:33.800Z,47.1
2023-03-26T07:31:33.790Z,47.32
2023-03-26T07:36:33.801Z,47.31
2023-03-26T07:41:33.803Z,47.04
2023-03-26T07:46:33.803Z,47.11
2023-03-26T07:51:33.804Z,46.81
2023-03-26T07:56:33.794Z,46.77
2023-03-26T08:01:33.807Z,46.78
2023-03-26T08:06:33.797Z,46.75
2023-03-26T08:11:33.809Z,46.65
2023-03-26T08:16:33.810Z,46.37
2023-03-26T08:21:33.800Z,46.42
2023-03-26T08:26:33.811Z,46.14
2023-03-26T08:31:33.803Z,46.13
2023-03-26T08:36:33.814Z,46.8
2023-03-26T08:41:33.815Z,46.79
2023-03-26T08:46:33.817Z,47.16
2023-03-26T08:51:33.817Z,47.86
2023-03-26T08:56:33.807Z,47.94
2023-03-26T09:01:33.820Z,48.25
2023-03-26T09:06:33.810Z,48.15
2023-03-26T09:11:33.829Z,48.18
2023-03-26T09:16:33.822Z,48.2
2023-03-26T09:21:33.824Z,48.38
2023-03-26T09:26:33.825Z,48.18
2023-03-26T09:31:33.814Z,47.23
2023-03-26T09:36:33.826Z,46.6
2023-03-26T09:41:33.817Z,46.76
2023-03-26T09:46:33.829Z,47.07
2023-03-26T09:51:33.830Z,47.41
2023-03-26T09:56:33.819Z,47.69
2023-03-26T10:01:33.831Z,47.54
2023-03-26T10:06:33.822Z,47.32
2023-03-26T10:11:33.833Z,46.5
2023-03-26T10:16:33.835Z,46.57
2023-03-26T10:21:33.837Z,46.57
2023-03-26T10:26:33.837Z,46.87
2023-03-26T10:31:33.828Z,46.64
2023-03-26T10:36:33.840Z,45.47
2023-03-26T10:41:33.830Z,45.46
2023-03-26T10:46:33.842Z,43.53
2023-03-26T10:51:43.103Z,44.2
2023-03-26T10:56:33.833Z,44.52
2023-03-26T11:01:33.845Z,44.85
2023-03-26T11:06:33.837Z,43.84
2023-03-26T11:11:33.848Z,39.64
2023-03-26T11:16:33.851Z,38
2023-03-26T11:21:33.852Z,38.97
2023-03-26T11:26:33.855Z,38.61
2023-03-26T11:31:33.846Z,40.32
2023-03-26T11:36:33.885Z,41.08
2023-03-26T11:41:33.850Z,36.6
2023-03-26T11:46:33.862Z,42.83
2023-03-26T11:51:33.864Z,38.29
2023-03-26T11:56:33.931Z,35.3
2023-03-26T12:01:33.868Z,34.85
2023-03-26T12:06:33.861Z,34.47
2023-03-26T12:11:33.874Z,35.58
2023-03-26T12:16:33.866Z,36.2
2023-03-26T12:21:33.878Z,36.29
2023-03-26T12:26:33.882Z,37.78
2023-03-26T12:31:33.873Z,37.77
2023-03-26T12:36:33.887Z,39.86
2023-03-26T12:41:33.878Z,42.28
2023-03-26T12:46:33.891Z,41.3
2023-03-26T12:51:33.894Z,46.21
2023-03-26T12:56:33.896Z,49.08
2023-03-26T13:01:33.897Z,52.23
2023-03-26T13:06:33.889Z,55.66
2023-03-26T13:11:33.901Z,57.27
2023-03-26T13:16:33.892Z,54.17
2023-03-26T13:21:33.904Z,52.21
2023-03-26T13:26:33.906Z,52.94
2023-03-26T13:31:33.896Z,51.53
2023-03-26T13:36:33.910Z,49.65
2023-03-26T13:41:33.900Z,47.73
2023-03-26T13:46:33.913Z,45.98
2023-03-26T13:51:33.915Z,45
2023-03-26T13:56:33.918Z,45.68
2023-03-26T14:01:33.919Z,46.14
2023-03-26T14:06:33.911Z,45.68
2023-03-26T14:11:33.923Z,43.14
2023-03-26T14:16:33.915Z,43.47
2023-03-26T14:21:33.927Z,43.08
2023-03-26T14:26:33.929Z,46.36
2023-03-26T14:31:33.931Z,47.55
2023-03-26T14:36:33.934Z,45.72
2023-03-26T14:41:33.925Z,44.11
2023-03-26T14:46:33.938Z,45
2023-03-26T14:51:33.929Z,47.19
2023-03-26T14:56:33.941Z,47.43
2023-03-26T15:01:33.944Z,49.44
2023-03-26T15:06:33.935Z,50.39
2023-03-26T15:11:33.947Z,50.56
2023-03-26T15:16:33.938Z,49.55
2023-03-26T15:21:33.950Z,50.48
2023-03-26T15:26:33.952Z,50.65
2023-03-26T15:31:33.955Z,51.62
2023-03-26T15:36:33.956Z,51.63
2023-03-26T15:41:33.947Z,51.89
2023-03-26T15:46:33.959Z,51.83
2023-03-26T15:51:33.950Z,51.78
2023-03-26T15:56:33.962Z,52.11
2023-03-26T16:01:33.964Z,51.86
2023-03-26T16:06:33.955Z,53.98
2023-03-26T16:11:33.966Z,54.76
2023-03-26T16:16:33.957Z,54.84
2023-03-26T16:21:33.969Z,55.04
2023-03-26T16:26:33.970Z,54.5
2023-03-26T16:31:33.972Z,54.29
2023-03-26T16:36:33.972Z,53.38
2023-03-26T16:41:33.964Z,53.03
2023-03-26T16:46:33.976Z,52.69
2023-03-26T16:51:33.966Z,52.74
2023-03-26T16:56:33.986Z,52.86
2023-03-26T17:01:33.978Z,52.58
2023-03-26T17:06:33.981Z,52.13
2023-03-26T17:11:33.981Z,52.31
2023-03-26T17:16:33.972Z,51.94
2023-03-26T17:21:33.983Z,51.62
2023-03-26T17:26:33.974Z,51.42
2023-03-26T17:31:33.985Z,51.21
2023-03-26T17:36:33.986Z,51.57
2023-03-26T17:41:33.978Z,51.82
2023-03-26T17:46:33.989Z,51.38
2023-03-26T17:51:33.980Z,51.03
2023-03-26T17:56:33.991Z,51.5
2023-03-26T18:01:33.992Z,51.42
2023-03-26T18:06:33.994Z,51.09
2023-03-26T18:11:33.994Z,51.08
2023-03-26T18:16:33.985Z,51.4
2023-03-26T18:21:33.996Z,51.3
2023-03-26T18:26:33.987Z,51.2
2023-03-26T18:31:33.998Z,50.97
2023-03-26T18:36:43.259Z,50.72
2023-03-26T18:41:33.990Z,50.63
2023-03-26T18:46:34.002Z,50.87
2023-03-26T18:51:33.992Z,50.66
2023-03-26T18:56:34.003Z,50.58
2023-03-26T19:01:34.004Z,50.83
2023-03-26T19:06:34.007Z,50.66
2023-03-26T19:11:34.006Z,50.48
2023-03-26T19:16:33.997Z,50.4
2023-03-26T19:21:34.058Z,50.32
2023-03-26T19:26:33.999Z,50.18
2023-03-26T19:31:34.010Z,50.18
2023-03-26T19:36:34.011Z,50.02
2023-03-26T19:41:34.077Z,49.8
2023-03-26T19:46:34.014Z,49.55
2023-03-26T19:51:34.003Z,49.76
2023-03-26T19:56:34.016Z,49.76
2023-03-26T20:01:34.006Z,49.8
2023-03-26T20:06:34.017Z,49.91
2023-03-26T20:11:34.018Z,49.79
2023-03-26T20:16:34.008Z,49.4
2023-03-26T20:21:34.021Z,49.24
2023-03-26T20:26:34.011Z,49.01
2023-03-26T20:31:34.022Z,49.37
2023-03-26T20:36:34.023Z,49.54
2023-03-26T20:41:34.025Z,49.69
2023-03-26T20:46:34.025Z,49.46
2023-03-26T20:51:34.015Z,49.18
2023-03-26T20:56:34.028Z,49.03
2023-03-26T21:01:34.018Z,48.93
2023-03-26T21:06:34.029Z,48.83
2023-03-26T21:11:34.030Z,48.81
2023-03-26T21:16:34.020Z,48.61
2023-03-26T21:21:34.032Z,48.62
2023-03-26T21:26:34.023Z,48.49
2023-03-26T21:31:34.034Z,48.41
2023-03-26T21:36:34.035Z,48.42
2023-03-26T21:41:34.037Z,48.47
2023-03-26T21:46:34.038Z,48.5
2023-03-26T21:51:34.028Z,48.68
2023-03-26T21:56:34.105Z,48.82
2023-03-26T22:01:34.030Z,48.84
2023-03-26T22:06:34.049Z,48.94
2023-03-26T22:11:34.042Z,48.89
2023-03-26T22:16:34.044Z,48.73
2023-03-26T22:21:34.044Z,48.53
2023-03-26T22:26:34.035Z,48.26
2023-03-26T22:31:34.046Z,48.3
2023-03-26T22:36:34.036Z,48.34
2023-03-26T22:41:34.049Z,48.37
2023-03-26T22:46:34.048Z,48.13
2023-03-26T22:51:34.039Z,48.78
2023-03-26T22:56:34.050Z,48.7
2023-03-26T23:01:34.041Z,48.88
2023-03-26T23:06:34.052Z,49.19
2023-03-26T23:11:34.053Z,49.19
2023-03-26T23:16:34.055Z,49.34
2023-03-26T23:21:34.056Z,49.19
2023-03-26T23:26:34.046Z,49.16
2023-03-26T23:31:34.057Z,49.32
2023-03-26T23:36:34.048Z,48.93
2023-03-26T23:41:38.886Z,48.82
2023-03-26T23:46:34.059Z,48.82
2023-03-26T23:51:34.050Z,48.86
2023-03-26T23:56:34.061Z,48.68
